Time;durP1;ratioP1;P1;durP2;ratioP2;P2;SDS_P1;SDS_P2;PMS_P1;PMS_P2;Temp;Humidity;BMP_temperature;BMP_pressure;BME280_temperature;BME280_humidity;BME280_pressure;Samples;Min_cycle;Max_cycle;Signal;HPM_P1;HPM_P2
2023/03/04 00:00:34;;;;;;;14.50;3.47;;;5.40;99.90;;;;;;5042083;28;20304;-52
2023/03/04 00:03:00;;;;;;;11.05;3.72;;;5.40;99.90;;;;;;5039741;28;20045;-51
2023/03/04 00:05:25;;;;;;;13.00;3.42;;;5.20;99.90;;;;;;5032023;28;20033;-51
2023/03/04 00:07:51;;;;;;;17.75;3.50;;;5.30;99.90;;;;;;5021396;28;20028;-52
2023/03/04 00:10:17;;;;;;;11.85;3.30;;;5.30;99.90;;;;;;5040912;28;20036;-53
2023/03/04 00:12:42;;;;;;;14.80;3.17;;;5.30;99.90;;;;;;5043116;28;20036;-50
2023/03/04 00:15:08;;;;;;;12.48;3.40;;;5.30;99.90;;;;;;5032047;28;20056;-51
2023/03/04 00:17:34;;;;;;;16.50;3.50;;;5.40;99.90;;;;;;5022479;28;20041;-52
2023/03/04 00:19:59;;;;;;;15.57;3.33;;;5.50;99.90;;;;;;5040160;28;20049;-51
2023/03/04 00:22:25;;;;;;;12.48;3.47;;;5.40;99.90;;;;;;5035122;28;20073;-52
2023/03/04 00:24:50;;;;;;;10.20;3.20;;;5.40;99.90;;;;;;5039936;28;20018;-53
2023/03/04 00:27:16;;;;;;;10.05;3.10;;;5.50;99.90;;;;;;5037464;28;20108;-52
2023/03/04 00:29:42;;;;;;;16.50;4.15;;;5.40;99.90;;;;;;5034633;28;20038;-53
2023/03/04 00:32:07;;;;;;;14.75;3.92;;;5.60;99.90;;;;;;5012108;28;20050;-53
2023/03/04 00:34:33;;;;;;;11.55;3.30;;;5.50;99.90;;;;;;5035356;28;20393;-53
2023/03/04 00:37:00;;;;;;;15.05;3.53;;;5.40;99.90;;;;;;5036811;28;20116;-51
2023/03/04 00:39:27;;;;;;;16.17;3.40;;;5.30;99.90;;;;;;5029755;28;20037;-54
2023/03/04 00:41:53;;;;;;;15.27;3.50;;;5.40;99.90;;;;;;5027280;28;20036;-51
2023/03/04 00:44:18;;;;;;;12.85;2.95;;;5.40;99.90;;;;;;5039141;28;20484;-51
2023/03/04 00:46:44;;;;;;;13.48;3.28;;;5.20;99.90;;;;;;5043807;28;20039;-52
2023/03/04 00:49:09;;;;;;;14.10;3.58;;;5.40;99.90;;;;;;5035590;28;20033;-52
2023/03/04 00:51:35;;;;;;;12.02;3.88;;;5.20;99.90;;;;;;5037133;28;20040;-52
2023/03/04 00:54:00;;;;;;;11.48;3.42;;;5.40;99.90;;;;;;5039314;28;20056;-52
2023/03/04 00:56:26;;;;;;;11.65;3.20;;;5.60;99.90;;;;;;5036443;28;20064;-52
2023/03/04 00:58:52;;;;;;;20.27;3.80;;;5.60;99.90;;;;;;5039996;28;20484;-52
2023/03/04 01:01:17;;;;;;;11.98;3.30;;;5.60;99.90;;;;;;5033800;28;20037;-52
2023/03/04 01:03:43;;;;;;;12.85;4.05;;;5.50;99.90;;;;;;5018164;28;20057;-53
2023/03/04 01:06:10;;;;;;;14.80;3.30;;;5.70;99.90;;;;;;5036195;28;20036;-53
2023/03/04 01:08:36;;;;;;;16.27;3.78;;;5.50;99.90;;;;;;5018236;28;20057;-53
2023/03/04 01:11:01;;;;;;;17.02;4.25;;;5.40;99.90;;;;;;5037661;28;20460;-52
2023/03/04 01:13:27;;;;;;;14.93;3.55;;;5.40;99.90;;;;;;5038799;28;20045;-49
2023/03/04 01:15:53;;;;;;;14.45;3.92;;;5.30;99.90;;;;;;5040113;28;20040;-52
2023/03/04 01:18:18;;;;;;;21.20;3.95;;;5.30;99.90;;;;;;5034986;28;20029;-53
2023/03/04 01:20:44;;;;;;;15.38;3.72;;;5.50;99.90;;;;;;5039661;28;20029;-52
2023/03/04 01:23:09;;;;;;;16.67;3.55;;;5.60;99.90;;;;;;5040784;28;20045;-52
2023/03/04 01:25:35;;;;;;;21.85;3.67;;;5.50;99.90;;;;;;5046272;28;20443;-53
2023/03/04 01:28:01;;;;;;;21.88;3.67;;;5.60;99.90;;;;;;5044581;28;20021;-51
2023/03/04 01:30:26;;;;;;;20.23;4.47;;;5.60;99.90;;;;;;5042339;28;20029;-52
2023/03/04 01:32:52;;;;;;;21.05;4.00;;;5.20;99.90;;;;;;5034747;28;20033;-51
2023/03/04 01:35:17;;;;;;;14.52;3.72;;;5.20;99.90;;;;;;5035255;28;20030;-52
2023/03/04 01:37:43;;;;;;;18.42;4.40;;;5.20;99.90;;;;;;5043685;28;20056;-52
2023/03/04 01:40:09;;;;;;;14.32;3.58;;;5.20;99.90;;;;;;5046263;28;20375;-51
2023/03/04 01:42:35;;;;;;;16.33;3.83;;;5.30;99.90;;;;;;5041017;28;20034;-51
2023/03/04 01:45:03;;;;;;;14.52;3.78;;;5.30;99.90;;;;;;5025444;28;20067;-50
2023/03/04 01:47:31;;;;;;;18.50;4.13;;;5.50;99.90;;;;;;5043114;28;20048;-51
2023/03/04 01:50:00;;;;;;;19.00;4.13;;;5.40;99.90;;;;;;5042732;28;20512;-52
2023/03/04 01:52:26;;;;;;;18.35;3.70;;;5.20;99.90;;;;;;5040093;28;20033;-53
2023/03/04 01:54:52;;;;;;;20.35;4.13;;;5.30;99.90;;;;;;5029421;28;20512;-51
2023/03/04 01:57:21;;;;;;;15.48;3.38;;;5.40;99.90;;;;;;5041427;28;20211;-52
2023/03/04 02:00:07;;;;;;;15.15;3.83;;;5.20;99.90;;;;;;5044678;28;20458;-52
2023/03/04 02:02:32;;;;;;;17.80;3.97;;;5.20;99.90;;;;;;5063221;28;20110;-51
2023/03/04 02:04:58;;;;;;;14.32;3.97;;;5.00;99.90;;;;;;5052575;28;20053;-50
2023/03/04 02:07:23;;;;;;;19.92;4.70;;;5.10;99.90;;;;;;5056000;28;20071;-53
2023/03/04 02:09:49;;;;;;;17.65;3.45;;;5.10;99.90;;;;;;5066596;28;20373;-51
2023/03/04 02:12:15;;;;;;;14.40;3.92;;;5.00;99.90;;;;;;5059293;28;20369;-52
2023/03/04 02:14:40;;;;;;;15.15;3.47;;;5.00;99.90;;;;;;5059134;28;20087;-51
2023/03/04 02:17:11;;;;;;;16.92;3.70;;;5.10;99.90;;;;;;5063269;28;20445;-49
2023/03/04 02:19:49;;;;;;;16.65;3.80;;;5.10;99.90;;;;;;5060770;28;20044;-50
2023/03/04 02:22:15;;;;;;;20.95;3.58;;;5.20;99.90;;;;;;5064731;28;20035;-51
2023/03/04 02:24:47;;;;;;;20.63;3.70;;;5.10;99.90;;;;;;5062183;28;20337;-48
2023/03/04 02:27:13;;;;;;;15.20;3.00;;;5.10;99.90;;;;;;5055925;28;20037;-50
2023/03/04 02:29:39;;;;;;;17.95;3.92;;;5.20;99.90;;;;;;5065415;28;20047;-47
2023/03/04 02:32:05;;;;;;;17.42;3.35;;;5.10;99.90;;;;;;5051388;28;20571;-48
2023/03/04 02:34:33;;;;;;;22.80;4.10;;;5.00;99.90;;;;;;5058149;28;20396;-51
2023/03/04 02:37:00;;;;;;;22.35;4.18;;;5.10;99.90;;;;;;5056992;28;20443;-50
2023/03/04 02:39:40;;;;;;;20.02;4.30;;;5.10;99.90;;;;;;5055105;28;20033;-47
2023/03/04 02:42:06;;;;;;;25.70;5.30;;;5.20;99.90;;;;;;5051335;28;20124;-49
2023/03/04 02:44:40;;;;;;;17.67;4.32;;;5.00;99.90;;;;;;5062994;28;20067;-49
2023/03/04 02:47:10;;;;;;;18.48;4.25;;;5.00;99.90;;;;;;5060050;28;20421;-51
2023/03/04 02:49:37;;;;;;;20.13;3.63;;;5.20;99.90;;;;;;5053786;28;20404;-51
2023/03/04 02:52:14;;;;;;;21.92;3.92;;;5.10;99.90;;;;;;5055464;28;20372;-52
2023/03/04 02:54:40;;;;;;;19.52;3.70;;;5.10;99.90;;;;;;5061469;28;20033;-51
2023/03/04 02:57:08;;;;;;;16.45;4.25;;;5.10;99.90;;;;;;5054871;28;20511;-50
2023/03/04 02:59:38;;;;;;;18.83;3.58;;;5.00;99.90;;;;;;5051532;28;20041;-49
2023/03/04 03:02:05;;;;;;;14.52;3.40;;;5.10;99.90;;;;;;5052554;28;20107;-50
2023/03/04 03:04:32;;;;;;;16.48;4.00;;;5.10;99.90;;;;;;5060413;28;20036;-49
2023/03/04 03:06:57;;;;;;;16.95;3.35;;;5.10;99.90;;;;;;5059117;28;20037;-50
2023/03/04 03:09:23;;;;;;;15.27;3.13;;;5.10;99.90;;;;;;5056194;28;20043;-49
2023/03/04 03:11:48;;;;;;;19.02;4.05;;;5.10;99.90;;;;;;5041499;28;20036;-50
2023/03/04 03:14:14;;;;;;;19.83;3.42;;;5.10;99.90;;;;;;5055724;28;20033;-48
2023/03/04 03:16:39;;;;;;;19.75;3.85;;;5.10;99.90;;;;;;5058397;28;20028;-48
2023/03/04 03:19:05;;;;;;;25.92;3.88;;;5.10;99.90;;;;;;5063224;28;20430;-49
2023/03/04 03:21:31;;;;;;;20.80;3.72;;;5.20;99.90;;;;;;5051549;28;20043;-50
2023/03/04 03:23:57;;;;;;;18.38;3.67;;;5.20;99.90;;;;;;5058181;28;20057;-49
2023/03/04 03:26:22;;;;;;;18.80;3.30;;;5.10;99.90;;;;;;5061670;28;20040;-49
2023/03/04 03:28:48;;;;;;;19.98;3.80;;;5.10;99.90;;;;;;5054492;28;20029;-51
2023/03/04 03:31:13;;;;;;;18.13;3.95;;;5.20;99.90;;;;;;5058602;28;20475;-52
2023/03/04 03:33:39;;;;;;;19.67;3.53;;;5.20;99.90;;;;;;5051249;28;20043;-52
2023/03/04 03:36:06;;;;;;;13.57;3.58;;;5.20;99.90;;;;;;5051966;28;20028;-50
2023/03/04 03:38:31;;;;;;;19.48;3.75;;;5.40;99.90;;;;;;5056988;28;20406;-50
2023/03/04 03:40:57;;;;;;;16.85;3.60;;;5.30;99.90;;;;;;5058037;28;20037;-50
2023/03/04 03:43:23;;;;;;;17.92;3.83;;;5.20;99.90;;;;;;5055956;28;20253;-49
2023/03/04 03:45:50;;;;;;;13.27;3.30;;;5.20;99.90;;;;;;5042993;28;20032;-52
2023/03/04 03:48:16;;;;;;;24.50;4.32;;;5.10;99.90;;;;;;5059613;28;20043;-50
2023/03/04 03:50:42;;;;;;;18.95;4.22;;;5.10;99.90;;;;;;5057522;28;20033;-49
2023/03/04 03:53:07;;;;;;;22.45;3.83;;;5.20;99.90;;;;;;5060193;28;20564;-52
2023/03/04 03:55:33;;;;;;;16.15;3.58;;;5.30;99.90;;;;;;5055569;28;20037;-52
2023/03/04 03:57:58;;;;;;;17.67;3.55;;;5.10;99.90;;;;;;5059165;28;20060;-51
2023/03/04 04:00:24;;;;;;;15.15;3.38;;;5.10;99.90;;;;;;5060457;28;20340;-54
2023/03/04 04:02:50;;;;;;;17.25;3.40;;;5.20;99.90;;;;;;5057786;28;20072;-51
2023/03/04 04:05:16;;;;;;;21.83;3.92;;;5.30;99.90;;;;;;5051305;28;20059;-51
2023/03/04 04:07:42;;;;;;;13.73;3.10;;;5.30;99.90;;;;;;5061411;28;20044;-52
2023/03/04 04:10:09;;;;;;;20.55;3.45;;;5.40;99.90;;;;;;5058394;28;20032;-51
2023/03/04 04:12:34;;;;;;;14.10;2.97;;;5.20;99.90;;;;;;5059252;28;20043;-49
2023/03/04 04:15:00;;;;;;;24.88;3.65;;;5.20;99.90;;;;;;5041598;28;20181;-51
2023/03/04 04:17:26;;;;;;;21.95;3.50;;;5.30;99.90;;;;;;5060026;28;20033;-51
2023/03/04 04:19:51;;;;;;;14.73;3.53;;;5.20;99.90;;;;;;5055285;28;20025;-48
2023/03/04 04:22:19;;;;;;;18.55;3.13;;;5.20;99.90;;;;;;5058757;28;20074;-49
2023/03/04 04:24:45;;;;;;;15.77;3.20;;;5.20;99.90;;;;;;5052940;28;20093;-50
2023/03/04 04:27:11;;;;;;;16.48;3.63;;;5.20;99.90;;;;;;5058086;28;20444;-48
2023/03/04 04:29:37;;;;;;;22.85;3.60;;;5.20;99.90;;;;;;5059181;28;20074;-49
2023/03/04 04:32:03;;;;;;;15.13;3.78;;;5.20;99.90;;;;;;5057104;28;20032;-52
2023/03/04 04:34:29;;;;;;;15.52;3.13;;;5.20;99.90;;;;;;5058125;28;20304;-50
2023/03/04 04:36:54;;;;;;;12.80;3.22;;;5.10;99.90;;;;;;5057572;28;20074;-53
2023/03/04 04:39:20;;;;;;;17.17;3.17;;;5.10;99.90;;;;;;5050435;28;20083;-49
2023/03/04 04:41:46;;;;;;;11.88;2.58;;;5.10;99.90;;;;;;5050888;28;20037;-49
2023/03/04 04:44:12;;;;;;;12.55;2.95;;;5.20;99.90;;;;;;5048696;28;20037;-52
2023/03/04 04:46:38;;;;;;;11.45;2.85;;;5.20;99.90;;;;;;5063937;28;20407;-53
2023/03/04 04:49:05;;;;;;;13.02;3.03;;;5.20;99.90;;;;;;5055598;28;20040;-48
2023/03/04 04:51:32;;;;;;;14.75;2.70;;;5.20;99.90;;;;;;5050056;28;20064;-52
2023/03/04 04:53:59;;;;;;;11.93;2.55;;;5.20;99.90;;;;;;5054458;28;20415;-52
2023/03/04 04:56:25;;;;;;;13.32;2.40;;;5.20;99.90;;;;;;5057878;28;20434;-48
2023/03/04 04:58:53;;;;;;;14.90;2.55;;;5.20;99.90;;;;;;5063599;28;20033;-47
2023/03/04 05:01:19;;;;;;;12.63;2.75;;;5.10;99.90;;;;;;5061265;28;20438;-51
2023/03/04 05:03:45;;;;;;;14.88;2.33;;;5.10;99.90;;;;;;5042654;28;20095;-50
2023/03/04 05:06:12;;;;;;;17.27;3.17;;;5.10;99.90;;;;;;5063958;28;20037;-51
2023/03/04 05:08:38;;;;;;;15.55;2.83;;;5.10;99.90;;;;;;5065902;28;20039;-53
2023/03/04 05:11:04;;;;;;;14.65;2.75;;;5.20;99.90;;;;;;5059401;28;20144;-53
2023/03/04 05:13:30;;;;;;;10.27;2.72;;;5.20;99.90;;;;;;5065197;28;20115;-49
2023/03/04 05:15:57;;;;;;;14.32;2.75;;;5.20;99.90;;;;;;5066420;28;20140;-49
2023/03/04 05:18:23;;;;;;;17.48;3.00;;;5.20;99.90;;;;;;5063189;28;20039;-49
2023/03/04 05:20:53;;;;;;;13.10;3.00;;;5.20;99.90;;;;;;5061635;28;20123;-48
2023/03/04 05:23:19;;;;;;;14.13;2.58;;;5.10;99.90;;;;;;5061200;28;20391;-51
2023/03/04 05:25:45;;;;;;;11.18;2.58;;;5.20;99.90;;;;;;5064516;28;20380;-48
2023/03/04 05:28:11;;;;;;;10.15;2.78;;;5.10;99.90;;;;;;5057039;28;20111;-49
2023/03/04 05:30:38;;;;;;;16.50;3.17;;;5.10;99.90;;;;;;5062601;28;20140;-51
2023/03/04 05:33:04;;;;;;;13.25;3.05;;;5.20;99.90;;;;;;5055609;28;20040;-49
2023/03/04 05:35:29;;;;;;;10.68;2.45;;;5.20;99.90;;;;;;5063194;28;20035;-50
2023/03/04 05:37:55;;;;;;;15.27;3.30;;;5.30;99.90;;;;;;5063510;28;20314;-48
2023/03/04 05:40:23;;;;;;;15.18;2.65;;;5.30;99.90;;;;;;5061953;28;20037;-50
2023/03/04 05:42:48;;;;;;;14.10;2.72;;;5.20;99.90;;;;;;5064368;28;20468;-53
2023/03/04 05:45:14;;;;;;;10.35;2.70;;;5.40;99.90;;;;;;5051220;28;20058;-49
2023/03/04 05:47:39;;;;;;;11.48;2.65;;;5.30;99.90;;;;;;5064422;28;20033;-50
2023/03/04 05:50:05;;;;;;;14.85;3.20;;;5.20;99.90;;;;;;5056724;28;20029;-50
2023/03/04 05:52:31;;;;;;;16.25;2.92;;;5.20;99.90;;;;;;5061841;28;20047;-53
2023/03/04 05:54:56;;;;;;;17.40;3.10;;;5.10;99.90;;;;;;5062119;28;20029;-48
2023/03/04 05:57:22;;;;;;;10.88;2.55;;;5.30;99.90;;;;;;5058152;28;20068;-52
2023/03/04 05:59:48;;;;;;;8.70;2.30;;;5.20;99.90;;;;;;5064743;28;20029;-51
2023/03/04 06:02:13;;;;;;;19.23;3.40;;;5.20;99.90;;;;;;5041918;28;20051;-49
2023/03/04 06:04:39;;;;;;;12.13;2.75;;;5.30;99.90;;;;;;5049580;28;20066;-50
2023/03/04 06:07:04;;;;;;;15.48;2.63;;;5.20;99.90;;;;;;5059345;28;20028;-51
2023/03/04 06:09:30;;;;;;;15.63;2.85;;;5.20;99.90;;;;;;5067196;28;20036;-49
2023/03/04 06:11:56;;;;;;;18.25;3.38;;;5.30;99.90;;;;;;5056248;28;20032;-49
2023/03/04 06:14:21;;;;;;;11.77;2.35;;;5.40;99.90;;;;;;5044358;28;20090;-48
2023/03/04 06:16:47;;;;;;;17.60;3.00;;;5.40;99.90;;;;;;5060053;28;20037;-52
2023/03/04 06:19:12;;;;;;;10.98;2.55;;;5.50;99.90;;;;;;5054565;28;20043;-53
2023/03/04 06:21:38;;;;;;;17.30;3.65;;;5.40;99.90;;;;;;5061173;28;20028;-53
2023/03/04 06:24:04;;;;;;;13.95;2.65;;;5.30;99.90;;;;;;5060818;28;20495;-49
2023/03/04 06:26:30;;;;;;;10.57;2.47;;;5.40;99.90;;;;;;5060388;28;20237;-49
2023/03/04 06:28:56;;;;;;;18.00;2.97;;;5.30;99.90;;;;;;5057617;28;20036;-50
2023/03/04 06:31:22;;;;;;;17.10;2.55;;;5.30;99.90;;;;;;5060258;28;20040;-49
2023/03/04 06:33:47;;;;;;;12.60;2.70;;;5.30;99.90;;;;;;5053450;28;20025;-51
2023/03/04 06:36:13;;;;;;;17.52;4.38;;;5.30;99.90;;;;;;5052927;28;20037;-51
2023/03/04 06:38:39;;;;;;;15.32;2.80;;;5.30;99.90;;;;;;5051221;28;20056;-49
2023/03/04 06:41:09;;;;;;;11.95;2.13;;;5.30;99.90;;;;;;5055206;28;20498;-51
2023/03/04 06:43:35;;;;;;;13.07;2.42;;;5.30;99.90;;;;;;5064669;28;20488;-51
2023/03/04 06:46:01;;;;;;;16.25;2.80;;;5.30;99.90;;;;;;5056055;28;20024;-51
2023/03/04 06:48:27;;;;;;;13.55;2.75;;;5.20;99.90;;;;;;5063521;28;20083;-48
2023/03/04 06:50:52;;;;;;;11.98;2.85;;;5.30;99.90;;;;;;5059100;28;20068;-51
2023/03/04 06:53:18;;;;;;;11.52;2.65;;;5.50;99.90;;;;;;5061970;28;20037;-51
2023/03/04 06:55:44;;;;;;;10.98;2.95;;;5.50;99.90;;;;;;5060325;28;20104;-48
2023/03/04 06:58:09;;;;;;;20.48;3.03;;;5.60;99.90;;;;;;5056308;28;20431;-49
2023/03/04 07:00:35;;;;;;;12.02;2.53;;;5.60;99.90;;;;;;5044593;28;20036;-50
2023/03/04 07:03:01;;;;;;;13.90;2.47;;;5.50;99.90;;;;;;5059557;28;20028;-51
2023/03/04 07:05:27;;;;;;;11.05;2.03;;;5.30;99.90;;;;;;5064680;28;20025;-48
2023/03/04 07:07:52;;;;;;;15.18;3.05;;;5.20;99.90;;;;;;5060421;28;20020;-52
2023/03/04 07:10:18;;;;;;;11.65;2.30;;;5.30;99.90;;;;;;5057317;28;20432;-52
2023/03/04 07:12:44;;;;;;;14.07;2.60;;;5.20;99.90;;;;;;5059563;28;20165;-49
2023/03/04 07:15:09;;;;;;;8.88;2.33;;;5.30;99.90;;;;;;5055936;28;20059;-49
2023/03/04 07:17:35;;;;;;;15.32;3.10;;;5.20;99.90;;;;;;5064271;28;20411;-48
2023/03/04 07:20:00;;;;;;;14.45;2.70;;;5.20;99.90;;;;;;5058898;28;20033;-51
2023/03/04 07:22:26;;;;;;;13.02;2.45;;;5.30;99.90;;;;;;5059809;28;20029;-49
2023/03/04 07:24:51;;;;;;;10.75;2.35;;;5.40;99.90;;;;;;5049999;28;20055;-49
2023/03/04 07:27:17;;;;;;;11.65;2.10;;;5.30;99.90;;;;;;5051938;28;20123;-50
2023/03/04 07:29:43;;;;;;;12.20;2.50;;;5.40;99.90;;;;;;5060836;28;20037;-49
2023/03/04 07:32:08;;;;;;;11.65;2.30;;;5.40;99.90;;;;;;5054725;28;20034;-47
2023/03/04 07:34:34;;;;;;;10.30;2.08;;;5.40;99.90;;;;;;5057650;28;20711;-48
2023/03/04 07:37:00;;;;;;;12.13;1.80;;;5.30;99.90;;;;;;5037697;28;20510;-52
2023/03/04 07:39:25;;;;;;;14.38;3.00;;;5.50;99.90;;;;;;5059659;28;20024;-48
2023/03/04 07:41:51;;;;;;;9.10;1.90;;;5.50;99.90;;;;;;5061303;28;20033;-51
2023/03/04 07:44:16;;;;;;;9.20;2.17;;;5.50;99.90;;;;;;5054944;28;20510;-51
2023/03/04 07:46:42;;;;;;;11.32;2.17;;;5.40;99.90;;;;;;5042486;28;20037;-48
2023/03/04 07:49:10;;;;;;;15.85;2.50;;;5.30;99.90;;;;;;5039085;28;20037;-49
2023/03/04 07:51:36;;;;;;;9.23;1.83;;;5.30;99.90;;;;;;5057143;28;20317;-50
2023/03/04 07:54:02;;;;;;;11.73;2.35;;;5.40;99.90;;;;;;5055946;28;20065;-49
2023/03/04 07:56:30;;;;;;;10.38;2.58;;;5.30;99.90;;;;;;5060950;28;20059;-48
2023/03/04 07:58:56;;;;;;;11.85;2.47;;;5.40;99.90;;;;;;5058631;28;20458;-50
2023/03/04 08:01:31;;;;;;;12.85;3.10;;;5.40;99.90;;;;;;5059859;28;20048;-51
2023/03/04 08:03:57;;;;;;;14.77;3.05;;;5.60;99.90;;;;;;5055731;28;20036;-50
2023/03/04 08:06:25;;;;;;;10.20;2.30;;;5.70;99.90;;;;;;5056766;28;20053;-51
2023/03/04 08:09:02;;;;;;;11.02;3.00;;;5.70;99.90;;;;;;5058857;28;20035;-48
2023/03/04 08:11:28;;;;;;;11.23;2.85;;;5.80;99.90;;;;;;5049547;28;20087;-48
2023/03/04 08:13:54;;;;;;;12.65;2.95;;;5.80;99.90;;;;;;5043607;28;20136;-48
2023/03/04 08:16:22;;;;;;;7.38;2.55;;;5.90;99.90;;;;;;5030335;28;20147;-50
2023/03/04 08:18:51;;;;;;;10.15;2.33;;;6.10;99.90;;;;;;5018470;28;20492;-47
2023/03/04 08:21:18;;;;;;;11.73;2.40;;;6.10;99.90;;;;;;5039584;28;20040;-50
2023/03/04 08:23:44;;;;;;;12.82;2.95;;;6.10;99.90;;;;;;5042450;28;20060;-49
2023/03/04 08:26:40;;;;;;;13.25;2.10;;;6.00;99.90;;;;;;5036246;28;20121;-49
2023/03/04 08:29:05;;;;;;;10.82;2.35;;;6.00;99.90;;;;;;5042614;28;20056;-49
2023/03/04 08:31:31;;;;;;;11.35;2.35;;;6.10;99.90;;;;;;5030001;28;20565;-51
2023/03/04 08:33:57;;;;;;;14.50;2.45;;;5.90;99.90;;;;;;5041941;28;20036;-51
2023/03/04 08:36:22;;;;;;;6.93;2.50;;;5.90;99.90;;;;;;5032981;28;20502;-51
2023/03/04 08:38:48;;;;;;;7.25;2.05;;;5.90;99.90;;;;;;5045749;28;20096;-53
2023/03/04 08:41:14;;;;;;;8.23;1.92;;;6.00;99.90;;;;;;5038193;28;20286;-49
2023/03/04 08:43:40;;;;;;;13.00;2.65;;;6.00;99.90;;;;;;5038623;28;20511;-49
2023/03/04 08:46:06;;;;;;;9.95;2.33;;;6.10;99.90;;;;;;5041967;28;20060;-51
2023/03/04 08:48:32;;;;;;;8.88;2.20;;;6.30;99.90;;;;;;5048514;28;20040;-50
2023/03/04 08:50:57;;;;;;;13.40;2.40;;;6.40;99.90;;;;;;5038871;28;20029;-50
2023/03/04 08:53:23;;;;;;;8.23;1.70;;;6.40;99.90;;;;;;5038416;28;20041;-51
2023/03/04 08:55:51;;;;;;;14.23;2.10;;;6.50;99.90;;;;;;5043844;28;20029;-52
2023/03/04 08:58:17;;;;;;;11.20;2.30;;;6.40;99.90;;;;;;5042753;28;20033;-50
2023/03/04 09:00:47;;;;;;;9.73;1.67;;;6.60;99.90;;;;;;5041606;28;20481;-52
2023/03/04 09:03:13;;;;;;;12.90;4.78;;;6.60;99.90;;;;;;5037784;28;20061;-49
2023/03/04 09:05:39;;;;;;;11.18;3.83;;;6.70;99.90;;;;;;5039148;28;20029;-50
2023/03/04 09:08:06;;;;;;;18.05;4.07;;;6.80;99.90;;;;;;5043543;28;20515;-51
2023/03/04 09:10:31;;;;;;;11.57;2.60;;;7.00;99.90;;;;;;5042925;28;20037;-51
2023/03/04 09:12:57;;;;;;;11.40;2.42;;;7.00;99.90;;;;;;5040853;28;20603;-52
2023/03/04 09:15:23;;;;;;;6.85;1.92;;;6.70;99.90;;;;;;5036846;28;20112;-53
2023/03/04 09:17:49;;;;;;;9.07;1.70;;;6.40;99.90;;;;;;5047449;28;20156;-53
2023/03/04 09:20:14;;;;;;;13.13;2.53;;;6.40;99.90;;;;;;5044463;28;20029;-54
2023/03/04 09:22:41;;;;;;;5.97;1.98;;;6.50;99.90;;;;;;5043583;28;20048;-53
2023/03/04 09:25:07;;;;;;;7.00;1.88;;;6.50;99.90;;;;;;5039126;28;20488;-49
2023/03/04 09:27:33;;;;;;;9.10;2.17;;;6.50;99.90;;;;;;5038784;28;20507;-53
2023/03/04 09:29:59;;;;;;;8.65;1.88;;;6.50;99.90;;;;;;5040958;28;20033;-53
2023/03/04 09:32:24;;;;;;;5.35;1.65;;;6.60;99.90;;;;;;5020059;28;20036;-51
2023/03/04 09:34:50;;;;;;;7.57;1.70;;;6.60;99.90;;;;;;5043438;28;20041;-50
2023/03/04 09:37:15;;;;;;;9.65;2.28;;;6.70;99.90;;;;;;5041439;28;20391;-54
2023/03/04 09:39:41;;;;;;;8.15;2.08;;;6.60;99.90;;;;;;5042529;28;20396;-54
2023/03/04 09:42:20;;;;;;;10.15;2.00;;;6.50;99.90;;;;;;5040649;28;20029;-54
2023/03/04 09:44:46;;;;;;;7.30;1.98;;;6.70;99.90;;;;;;5043801;28;20122;-54
2023/03/04 09:47:15;;;;;;;8.43;1.70;;;7.10;99.90;;;;;;5037621;28;20033;-52
2023/03/04 09:49:47;;;;;;;15.52;2.13;;;7.10;99.90;;;;;;5042069;28;20036;-53
2023/03/04 09:52:44;;;;;;;9.52;1.70;;;6.90;99.90;;;;;;5040956;28;20503;-52
2023/03/04 09:55:21;;;;;;;6.82;1.48;;;6.90;99.90;;;;;;5036929;28;20373;-51
2023/03/04 09:58:12;;;;;;;5.88;1.70;;;7.10;99.90;;;;;;5041015;28;20403;-52
2023/03/04 10:01:02;;;;;;;9.73;2.22;;;7.40;99.90;;;;;;5023455;28;20056;-51
2023/03/04 10:03:42;;;;;;;9.57;1.88;;;7.40;99.90;;;;;;5050828;28;20127;-50
2023/03/04 10:06:15;;;;;;;6.78;1.40;;;7.50;99.90;;;;;;5038667;28;20539;-54
2023/03/04 10:08:50;;;;;;;;;;;7.60;99.90;;;;;;5039205;28;20524;-52
2023/03/04 10:11:40;;;;;;;5.65;1.83;;;7.50;99.90;;;;;;5035367;28;19916;-54
2023/03/04 10:14:21;;;;;;;5.95;1.40;;;7.60;99.90;;;;;;5042078;28;20083;-54
2023/03/04 10:16:57;;;;;;;8.93;1.75;;;7.60;99.90;;;;;;5039380;28;20033;-53
2023/03/04 10:19:29;;;;;;;10.32;1.70;;;7.40;99.90;;;;;;5041061;28;20079;-55
2023/03/04 10:21:55;;;;;;;11.00;2.08;;;7.30;99.90;;;;;;5042637;28;20025;-54
2023/03/04 10:24:26;;;;;;;9.43;1.80;;;7.20;99.90;;;;;;5037842;28;20525;-54
2023/03/04 10:26:56;;;;;;;8.52;1.98;;;7.30;99.90;;;;;;5030725;28;20029;-53
2023/03/04 10:29:23;;;;;;;10.95;2.08;;;7.20;99.90;;;;;;5035617;28;20038;-53
2023/03/04 10:31:50;;;;;;;7.22;2.00;;;7.20;99.90;;;;;;5035243;28;20034;-51
2023/03/04 10:34:16;;;;;;;8.38;2.47;;;7.00;99.90;;;;;;5033201;28;20567;-53
2023/03/04 10:36:57;;;;;;;9.85;3.13;;;7.20;99.90;;;;;;5001958;28;20500;-53
2023/03/04 10:39:26;;;;;;;4.72;2.30;;;7.40;99.90;;;;;;5043123;28;20040;-52
2023/03/04 10:42:25;;;;;;;4.35;1.50;;;7.60;99.90;;;;;;5033457;28;20029;-50
2023/03/04 10:44:59;;;;;;;7.22;2.17;;;7.70;99.90;;;;;;5058769;28;20044;-53
2023/03/04 10:47:27;;;;;;;7.13;2.10;;;7.80;99.90;;;;;;5065253;28;20036;-49
2023/03/04 10:49:58;;;;;;;7.13;1.77;;;7.80;99.90;;;;;;5052094;28;20385;-51
2023/03/04 10:52:35;;;;;;;6.72;2.13;;;7.90;99.90;;;;;;5055867;28;20040;-51
2023/03/04 10:55:14;;;;;;;5.15;1.75;;;8.00;99.90;;;;;;5035019;28;20037;-54
2023/03/04 10:57:43;;;;;;;6.10;1.95;;;7.90;99.90;;;;;;5058083;28;20101;-54
2023/03/04 11:00:21;;;;;;;8.68;2.40;;;7.80;99.90;;;;;;5064522;28;20032;-54
2023/03/04 11:02:47;;;;;;;7.68;2.20;;;8.00;99.90;;;;;;5057076;28;20033;-54
2023/03/04 11:05:30;;;;;;;8.00;2.50;;;8.00;99.90;;;;;;5062739;28;20420;-53
2023/03/04 11:07:59;;;;;;;6.97;1.35;;;7.70;99.90;;;;;;5050940;28;20037;-53
2023/03/04 11:10:36;;;;;;;6.30;1.70;;;7.70;99.90;;;;;;5056581;28;20072;-53
2023/03/04 11:13:24;;;;;;;6.72;1.50;;;7.70;99.90;;;;;;5053318;28;20035;-52
2023/03/04 11:15:56;;;;;;;11.75;3.45;;;7.70;99.90;;;;;;5037212;28;20029;-53
2023/03/04 11:18:42;;;;;;;7.13;2.28;;;7.70;99.90;;;;;;5034047;28;20517;-54
2023/03/04 11:21:15;;;;;;;7.13;2.08;;;8.00;99.90;;;;;;5035450;28;20156;-52
2023/03/04 11:23:48;;;;;;;;;;;8.10;99.90;;;;;;5031898;28;20519;-53
2023/03/04 11:26:18;;;;;;;6.68;1.92;;;8.00;99.90;;;;;;5044412;28;20403;-53
2023/03/04 11:29:16;;;;;;;6.22;1.55;;;8.20;99.90;;;;;;5032199;28;20041;-53
2023/03/04 11:31:50;;;;;;;5.60;1.60;;;8.10;99.90;;;;;;5039768;28;20029;-53
2023/03/04 11:34:30;;;;;;;4.93;1.80;;;8.10;99.90;;;;;;5028257;28;20032;-53
2023/03/04 11:37:27;;;;;;;7.97;1.90;;;7.90;99.90;;;;;;5045774;28;20408;-53
2023/03/04 11:40:00;;;;;;;4.65;2.10;;;7.90;99.90;;;;;;5028503;28;20036;-53
2023/03/04 11:42:43;;;;;;;8.13;2.40;;;7.80;99.90;;;;;;5044184;28;20059;-54
2023/03/04 11:45:53;;;;;;;7.88;3.20;;;8.00;99.90;;;;;;5045905;28;20475;-53
2023/03/04 11:48:51;;;;;;;4.47;1.95;;;8.00;99.90;;;;;;5039298;28;20040;-54
2023/03/04 11:51:27;;;;;;;4.95;2.85;;;8.00;99.90;;;;;;5060412;28;20036;-53
2023/03/04 11:54:30;;;;;;;4.97;1.80;;;8.10;99.90;;;;;;5050555;28;20041;-53
2023/03/04 11:57:01;;;;;;;4.70;1.90;;;7.90;99.90;;;;;;5048868;28;20036;-52
2023/03/04 11:59:49;;;;;;;5.97;2.72;;;7.70;99.90;;;;;;5055393;28;20388;-53
2023/03/04 12:02:26;;;;;;;6.68;1.98;;;7.70;99.90;;;;;;5031315;28;20032;-52
2023/03/04 12:05:15;;;;;;;4.57;1.42;;;7.80;99.90;;;;;;5048464;28;20175;-53
2023/03/04 12:07:55;;;;;;;5.53;1.30;;;8.00;99.90;;;;;;5052093;28;20029;-53
2023/03/04 12:10:29;;;;;;;5.13;2.22;;;8.10;99.90;;;;;;5031872;28;20041;-53
2023/03/04 12:13:16;;;;;;;4.35;2.60;;;8.20;99.90;;;;;;5044561;28;20115;-53
2023/03/04 12:15:55;;;;;;;7.10;3.28;;;8.10;99.90;;;;;;5044450;28;20033;-53
2023/03/04 12:18:48;;;;;;;4.45;1.60;;;8.10;99.90;;;;;;5047679;28;20392;-52
2023/03/04 12:21:16;;;;;;;5.23;1.90;;;8.20;99.90;;;;;;5047602;28;20029;-53
2023/03/04 12:24:14;;;;;;;3.50;1.55;;;8.20;99.90;;;;;;5044074;28;20425;-53
2023/03/04 12:26:48;;;;;;;3.25;1.30;;;8.10;99.90;;;;;;5006844;28;20072;-53
2023/03/04 12:29:33;;;;;;;3.38;1.60;;;8.20;99.90;;;;;;5022673;28;20037;-51
2023/03/04 12:32:23;;;;;;;4.10;1.45;;;8.10;99.90;;;;;;5043466;28;20080;-54
2023/03/04 12:35:02;;;;;;;4.30;1.52;;;8.30;99.90;;;;;;5023388;28;20057;-53
2023/03/04 12:37:47;;;;;;;5.40;1.52;;;8.30;99.90;;;;;;5043916;28;20036;-54
2023/03/04 12:40:45;;;;;;;4.25;1.45;;;8.20;99.90;;;;;;5045864;28;20033;-50
2023/03/04 12:43:31;;;;;;;3.22;1.10;;;8.20;99.90;;;;;;5033365;28;20475;-53
2023/03/04 12:46:03;;;;;;;4.47;2.10;;;8.50;99.90;;;;;;5045752;28;20036;-49
2023/03/04 12:48:59;;;;;;;4.60;1.60;;;8.40;99.90;;;;;;5044831;28;20064;-53
2023/03/04 12:51:34;;;;;;;4.43;1.55;;;8.20;99.90;;;;;;5045107;28;20029;-53
2023/03/04 12:54:26;;;;;;;3.78;1.33;;;7.80;99.90;;;;;;5045569;28;20033;-51
2023/03/04 12:57:03;;;;;;;3.30;1.50;;;7.60;99.90;;;;;;5039186;28;20029;-53
2023/03/04 12:59:38;;;;;;;1.85;1.15;;;7.70;99.90;;;;;;5024754;28;20527;-53
2023/03/04 13:02:20;;;;;;;3.40;1.38;;;7.70;99.90;;;;;;5043914;28;20041;-53